Flight Track Log - Related Links

Times and Time Zones

All times are in EDT time to prevent confusion due to time zone crossing. See the RPA3468 flight status page for this flight to view local times or setup timezone preferences in your user account.

Time Position Orientation Groundspeed Altitude Reporting Facility
EDT Latitude Longitude Course Direction KTS MPH feet Rate Location/Type
Wed 07:33:59 PM 38.8000 -77.0167 38° Northeast 150 173 2,200  Level Potomac TRACON
Wed 07:34:59 PM 38.7500 -76.9833 153° Southeast 262 302 3,700 2,300 Climbing Potomac TRACON
Wed 07:35:00 PM 38.9665 -76.6837 67° East  Level FlightAware Approximate
Wed 07:35:59 PM 38.7833 -76.9000 63° Northeast 298 343 6,800  Level Potomac TRACON
Wed 07:36:00 PM 39.0153 -76.5695 57° Northeast  Level FlightAware Approximate
Wed 07:37:00 PM 39.0593 -76.4517 63° Northeast  Level FlightAware Approximate
Wed 07:37:23 PM 38.8675 -76.8181 37° Northeast 286 329 10,700  Level Washington Center
Wed 07:38:00 PM 39.1080 -76.3369 61° Northeast  Level FlightAware Approximate
Wed 07:38:21 PM 38.9328 -76.7472 40° Northeast 286 329 13,000  Level Washington Center
Wed 07:39:00 PM 39.1445 -76.2221 38° Northeast  Level FlightAware Approximate
Wed 07:39:21 PM 38.9756 -76.6275 65° Northeast 308 354 14,700  Level Washington Center
Wed 07:40:22 PM 39.0164 -76.4947 68° East 339 390 16,900 2,231 Climbing Washington Center
Wed 07:41:22 PM 39.0528 -76.3586 71° East 374 430 19,200 2,083 Climbing Washington Center
Wed 07:42:23 PM 39.0931 -76.2175 70° East 400 460 21,100 1,785 Climbing Washington Center
Wed 07:43:23 PM 39.1375 -76.0681 69° East 422 486 22,800 1,627 Climbing Washington Center
Wed 07:44:21 PM 39.1817 -75.9208 69° East 437 503 24,300 1,525 Climbing Washington Center
Wed 07:45:21 PM 39.2569 -75.7981 52° Northeast 437 503 25,800 1,328 Climbing Washington Center
Wed 07:46:23 PM 39.3467 -75.6828 45° Northeast 437 503 27,000 984 Climbing Washington Center
Wed 07:47:23 PM 39.4322 -75.5728 45° Northeast 432 497 27,800 864 Climbing Washington Center
Wed 07:48:21 PM 39.5217 -75.4569 45° Northeast 432 497 28,700 360 Climbing Washington Center
Wed 07:50:43 PM 39.7389 -75.2442 37° Northeast 427 491 29,000 89 Climbing New York Center
Wed 07:51:43 PM 39.8231 -75.1144 50° Northeast 434 499 29,000  Level New York Center
Wed 07:52:44 PM 39.9072 -74.9789 51° Northeast 463 533 29,000  Level New York Center
Wed 07:53:41 PM 40.0022 -74.8247 51° Northeast 481 554 29,000  Level New York Center
Wed 07:54:42 PM 40.0928 -74.7350 37° Northeast 481 554 29,000  Level New York Center
Wed 07:55:43 PM 40.2172 -74.6933 14° North 444 511 29,000  Level New York Center
Wed 07:56:43 PM 40.3481 -74.6436 16° North 439 505 29,000  Level New York Center
Wed 07:57:43 PM 40.4681 -74.6039 14° North 444 511 29,000  Level New York Center
Wed 07:58:42 PM 40.5883 -74.5614 15° North 444 511 29,000  Level New York Center
Wed 07:59:42 PM 40.7125 -74.5192 14° North 444 511 29,000  Level New York Center
Wed 08:00:42 PM 40.8325 -74.4789 14° North 444 511 29,000  Level New York Center
Wed 08:03:08 PM 41.1206 -74.3853 14° North 450 518 29,000  Level Boston Center
Wed 08:04:08 PM 41.2422 -74.3422 15° North 450 518 29,000  Level Boston Center
Wed 08:05:08 PM 41.3764 -74.2936 15° North 450 518 29,000  Level Boston Center
Wed 08:06:08 PM 41.4961 -74.2472 16° North 450 518 29,000  Level Boston Center
Wed 08:07:08 PM 41.6092 -74.2114 13° North 458 527 29,000  Level Boston Center
Wed 08:08:08 PM 41.7350 -74.1678 14° North 453 521 29,000  Level Boston Center
Wed 08:09:08 PM 41.8542 -74.1264 15° North 448 516 29,000  Level Boston Center
Wed 08:10:08 PM 41.9781 -74.0822 15° North 448 516 29,000  Level Boston Center
Wed 08:11:08 PM 42.0764 -74.0483 14° North 455 524 29,000  Level Boston Center
Wed 08:12:08 PM 42.2272 -73.9961 14° North 455 524 29,000  Level Boston Center
Wed 08:13:08 PM 42.3508 -73.9486 16° North 455 524 29,000  Level Boston Center
Wed 08:14:08 PM 42.4742 -73.9067 14° North 455 524 29,000  Level Boston Center
Wed 08:15:08 PM 42.5978 -73.8589 16° North 455 524 29,000  Level Boston Center
Wed 08:16:08 PM 42.7172 -73.8164 15° North 450 518 29,000  Level Boston Center
Wed 08:17:08 PM 42.8408 -73.7681 16° North 457 526 29,000  Level Boston Center
Wed 08:18:08 PM 42.9683 -73.7225 15° North 457 526 29,000 -750 Level Boston Center
Wed 08:19:08 PM 43.0647 -73.6847 16° North 457 526 27,500 -2,300 Descending Boston Center
Wed 08:20:08 PM 43.2153 -73.6281 15° North 442 509 24,400 -1,750 Descending Boston Center
Wed 08:21:08 PM 43.3283 -73.5875 15° North 424 488 24,000 -450 Descending Boston Center
Wed 08:22:08 PM 43.4411 -73.5467 15° North 419 482 23,500 -1,500 Descending Boston Center
Wed 08:23:08 PM 43.5522 -73.5028 16° North 419 482 21,000 -2,500 Descending Boston Center
Wed 08:24:08 PM 43.6608 -73.4647 14° North 414 476 18,500 -2,600 Descending Boston Center
Wed 08:25:08 PM 43.7653 -73.4261 15° North 392 451 15,800 -2,600 Descending Boston Center
Wed 08:26:08 PM 43.8636 -73.3875 16° North 373 429 13,300 -2,150 Descending Boston Center
Wed 08:27:08 PM 43.9556 -73.3542 15° North 351 404 11,500 -1,700 Descending Boston Center
Wed 08:28:08 PM 44.0369 -73.3239 15° North 315 362 9,900 -1,800 Descending Boston Center
Wed 08:29:08 PM 44.1122 -73.2931 16° North 282 325 7,900 -1,950 Descending Boston Center
Wed 08:30:08 PM 44.1833 -73.2767 North 270 311 6,000 -1,550 Descending Boston Center
Wed 08:31:08 PM 44.2478 -73.2719 North 263 303 4,800 -1,050 Descending Boston Center
Wed 08:32:08 PM 44.3208 -73.2669 North 258 297 3,900 -950 Descending Boston Center
Wed 08:33:08 PM 44.3936 -73.2797 353° North 253 291 2,900 -850 Descending Boston Center
Wed 08:34:08 PM 44.4561 -73.3039 345° North 243 280 2,200 -700 Descending Boston Center

Login

Don't have an account? Register now (free) for customized features, flight alerts, and more!